Flight Track Log - Related Links

Times and Time Zones

All times are in EST time to prevent confusion due to time zone crossing. See the EJA396 flight status page for this flight to view local times or setup timezone preferences in your user account.

Time Position Orientation Groundspeed Altitude Reporting Facility
EST Latitude Longitude Course Direction KTS MPH feet Rate Location/Type
Mon 12:18:19 PM 35.8606 -78.8033 258° West 171 197 1,400  Level Washington Center
Mon 12:20:18 PM 35.8383 -78.9331 258° West 221 254 11,400 3,553 Climbing Washington Center
Mon 12:21:18 PM 35.8375 -79.0331 269° West 254 292 12,000 1,339 Climbing Washington Center
Mon 12:22:19 PM 35.8367 -79.1356 269° West 302 348 14,100 3,406 Climbing Washington Center
Mon 12:23:53 PM 35.8347 -79.2847 269° West 303 349 20,800 3,468 Climbing Atlanta Center
Mon 12:24:53 PM 35.8283 -79.3875 266° West 303 349 23,000 1,100 Climbing Atlanta Center
Mon 12:25:53 PM 35.8178 -79.4931 263° West 308 354 23,000 1,250 Level Atlanta Center
Mon 12:26:53 PM 35.8031 -79.6067 261° West 319 367 25,500 1,500 Climbing Atlanta Center
Mon 12:27:53 PM 35.7861 -79.7178 259° West 319 367 26,000 600 Climbing Atlanta Center
Mon 12:28:53 PM 35.7653 -79.8364 258° West 339 390 26,700 1,900 Climbing Atlanta Center
Mon 12:29:53 PM 35.7439 -79.9503 257° West 345 397 29,800 2,650 Climbing Atlanta Center
Mon 12:30:53 PM 35.7247 -80.0586 258° West 338 389 32,000 1,650 Climbing Atlanta Center
Mon 12:31:53 PM 35.7069 -80.1617 258° West 338 389 33,100 1,000 Climbing Atlanta Center
Mon 12:32:53 PM 35.6878 -80.2778 259° West 343 395 34,000 450 Climbing Atlanta Center
Mon 12:33:53 PM 35.6683 -80.3911 258° West 343 395 34,000  Level Atlanta Center
Mon 12:34:53 PM 35.6567 -80.4989 262° West 338 389 34,000  Level Atlanta Center
Mon 12:35:53 PM 35.6639 -80.6058 275° West 326 375 34,000  Level Atlanta Center
Mon 12:36:53 PM 35.6733 -80.7156 276° West 320 368 34,000  Level Atlanta Center
Mon 12:37:53 PM 35.6825 -80.8250 276° West 325 374 34,000  Level Atlanta Center
Mon 12:38:53 PM 35.6917 -80.9372 276° West 330 380 34,000  Level Atlanta Center
Mon 12:39:53 PM 35.7028 -81.0467 277° West 330 380 34,000  Level Atlanta Center
Mon 12:40:53 PM 35.7117 -81.1639 275° West 330 380 34,000  Level Atlanta Center
Mon 12:41:53 PM 35.7206 -81.2761 276° West 335 386 34,000  Level Atlanta Center
Mon 12:42:53 PM 35.7336 -81.3908 278° West 341 392 34,000  Level Atlanta Center
Mon 12:43:53 PM 35.7400 -81.5058 274° West 341 392 34,000  Level Atlanta Center
Mon 12:44:53 PM 35.7508 -81.6181 277° West 341 392 34,000  Level Atlanta Center
Mon 12:45:53 PM 35.7569 -81.7331 274° West 341 392 34,000  Level Atlanta Center
Mon 12:46:53 PM 35.7694 -81.8453 278° West 341 392 34,000  Level Atlanta Center
Mon 12:47:53 PM 35.7758 -81.9631 274° West 347 399 34,000  Level Atlanta Center
Mon 12:48:53 PM 35.7861 -82.0778 276° West 347 399 34,000  Level Atlanta Center
Mon 12:49:53 PM 35.7942 -82.1903 275° West 347 399 34,000 -150 Level Atlanta Center
Mon 12:50:53 PM 35.8000 -82.3183 273° West 347 399 33,700 -650 Descending Atlanta Center
Mon 12:51:53 PM 35.8100 -82.4383 276° West 353 406 32,700 -850 Descending Atlanta Center
Mon 12:52:53 PM 35.8178 -82.5586 275° West 358 412 32,000 -350 Descending Atlanta Center
Mon 12:53:53 PM 35.8233 -82.6764 273° West 347 399 32,000  Level Atlanta Center
Mon 12:54:53 PM 35.8328 -82.7836 276° West 333 383 32,000  Level Atlanta Center
Mon 12:55:53 PM 35.8400 -82.8886 275° West 323 372 32,000  Level Atlanta Center
Mon 12:56:53 PM 35.8472 -82.9806 276° West 310 357 32,000 -400 Level Atlanta Center
Mon 12:57:53 PM 35.8544 -83.0856 275° West 310 357 31,200 -1,000 Descending Atlanta Center
Mon 12:58:53 PM 35.8592 -83.1958 273° West 310 357 30,000 -600 Descending Atlanta Center
Mon 12:59:53 PM 35.8683 -83.3186 275° West 318 366 30,000 -50 Level Atlanta Center
Mon 01:00:53 PM 35.8753 -83.4236 275° West 318 366 29,900 -550 Descending Atlanta Center
Mon 01:01:53 PM 35.8819 -83.5314 274° West 318 366 28,900 -950 Descending Atlanta Center
Mon 01:02:53 PM 35.8886 -83.6389 274° West 318 366 28,000 -450 Descending Atlanta Center
Mon 01:03:53 PM 35.8953 -83.7439 275° West 313 360 28,000 -550 Level Atlanta Center
Mon 01:04:53 PM 35.9017 -83.8492 274° West 313 360 26,900 -1,550 Descending Atlanta Center
Mon 01:05:53 PM 35.8956 -83.9567 266° West 313 360 24,900 -1,450 Descending Atlanta Center
Mon 01:06:53 PM 35.8769 -84.0619 258° West 318 366 24,000 -450 Descending Atlanta Center
Mon 01:07:53 PM 35.8600 -84.1669 259° West 318 366 24,000 -300 Level Atlanta Center
Mon 01:08:53 PM 35.8411 -84.2819 259° West 324 373 23,400 -500 Descending Atlanta Center
Mon 01:09:53 PM 35.8222 -84.3897 258° West 329 379 23,000 -200 Descending Atlanta Center
Mon 01:10:53 PM 35.8050 -84.5022 259° West 334 384 23,000  Level Atlanta Center
Mon 01:11:53 PM 35.7858 -84.6097 258° West 334 384 23,000  Level Atlanta Center
Mon 01:12:53 PM 35.7664 -84.7144 257° West 328 377 23,000  Level Atlanta Center
Mon 01:13:53 PM 35.7492 -84.8217 259° West 328 377 23,000 -136 Level Atlanta Center
Mon 01:15:50 PM 35.7147 -85.0250 258° West 333 383 22,600 -704 Descending Memphis Center
Mon 01:16:52 PM 35.6967 -85.1281 258° West 313 360 20,900 -1,258 Descending Memphis Center
Mon 01:17:54 PM 35.6783 -85.2347 258° West 316 364 20,000 -435 Descending Memphis Center
Mon 01:18:56 PM 35.6586 -85.3622 259° West 317 365 20,000  Level Memphis Center
Mon 01:19:58 PM 35.6611 -85.4739 272° West 325 374 20,000  Level Memphis Center
Mon 01:21:00 PM 35.6619 -85.5886 271° West 333 383 20,000  Level Memphis Center
Mon 01:22:02 PM 35.6636 -85.7025 271° West 334 384 20,000  Level Memphis Center
Mon 01:23:04 PM 35.6644 -85.8158 271° West 333 383 20,000 -624 Level Memphis Center
Mon 01:24:07 PM 35.6647 -85.9339 270° West 320 368 18,700 -1,392 Descending Memphis Center
Mon 01:25:09 PM 35.6656 -86.0394 271° West 310 357 17,100 -1,500 Descending Memphis Center
Mon 01:26:11 PM 35.7094 -86.1206 304° West 282 325 15,600 -1,452 Descending Memphis Center
Mon 01:27:13 PM 35.7625 -86.1906 313° West 279 321 14,100 -1,645 Descending Memphis Center
Mon 01:28:15 PM 35.8294 -86.2808 312° West 297 342 12,200 -1,694 Descending Memphis Center
Mon 01:29:17 PM 35.8867 -86.3556 313° West 298 343 10,600 -1,403 Descending Memphis Center
Mon 01:30:19 PM 35.9331 -86.4156 314° West 250 288 9,300 -1,210 Descending Memphis Center
Mon 01:31:21 PM 35.9792 -86.4758 313° West 240 276 8,100 -1,210 Descending Memphis Center
Mon 01:32:23 PM 36.0242 -86.5358 313° West 237 273 6,800 -1,403 Descending Memphis Center
Mon 01:33:25 PM 36.0825 -86.5681 336° Northwest 253 291 5,200 -1,016 Descending Memphis Center
Mon 01:34:27 PM 36.1569 -86.5431 15° North 272 313 4,700 -1,355 Descending Memphis Center
Mon 01:35:29 PM 36.2308 -86.5456 358° North 256 295 2,400 -1,306 Descending Memphis Center
Mon 01:36:31 PM 36.2378 -86.6036 278° West 195 224 2,000 -242 Descending Memphis Center
Mon 01:37:33 PM 36.1969 -86.6350 212° Southwest 179 206 1,900 -339 Descending Memphis Center
Mon 01:38:35 PM 36.1592 -86.6494 197° South 156 180 1,300 -532 Descending Memphis Center
Mon 01:39:37 PM 36.1339 -86.6578 195° South 125 144 800 -484 Descending Memphis Center
Mon 01:41:00 PM 36.1167 -86.6667 260° West  Level FlightAware Approximate

Login

Don't have an account? Register now (free) for customized features, flight alerts, and more!